Terminal Aerodrome Forecast
Issued by NWS

Home | Current Version | Previous Version | Text Only | Print | Product List | Glossary On
Versions: 1 2 3 4 5 6 7 8 9 10 11 12
000
FTUS46 KSGX 291720
TAFPSP
TAF
KPSP 291720Z 2918/3018 VRB06KT P6SM SKC
     FM292200 32010G18KT P6SM SKC
     FM300000 32015G25KT P6SM SKC
     FM300400 32010KT P6SM SKC
     FM300600 VRB06KT P6SM SKC=

USA.gov is the U.S. government's official web portal to all federal, state and local government web resources and services.